createdAt,value
2023-04-20T00:00:49.502Z,0.00
2023-04-20T00:10:57.068Z,0.00
2023-04-20T00:21:04.411Z,0.00
2023-04-20T00:31:11.546Z,0.00
2023-04-20T00:41:19.050Z,0.00
2023-04-20T00:51:26.326Z,0.00
2023-04-20T01:01:33.443Z,0.00
2023-04-20T01:11:40.755Z,0.00
2023-04-20T01:21:48.221Z,0.00
2023-04-20T01:31:55.518Z,0.00
2023-04-20T01:42:03.163Z,0.00
2023-04-20T01:52:10.644Z,0.00
2023-04-20T02:02:19.047Z,0.00
2023-04-20T02:12:26.907Z,0.00
2023-04-20T02:22:34.372Z,0.00
2023-04-20T02:32:42.902Z,0.00
2023-04-20T02:42:50.158Z,0.00
2023-04-20T02:52:57.731Z,0.00
2023-04-20T03:03:05.209Z,0.00
2023-04-20T03:13:12.621Z,0.00
2023-04-20T03:23:19.458Z,0.00
2023-04-20T03:33:26.649Z,0.00
2023-04-20T03:43:34.009Z,0.00
2023-04-20T03:53:41.158Z,0.00
2023-04-20T04:03:48.908Z,0.00
2023-04-20T04:13:56.524Z,0.00
2023-04-20T04:24:03.451Z,4.00
2023-04-20T04:34:08.371Z,4.00
2023-04-20T04:44:14.549Z,12.00
2023-04-20T04:54:20.970Z,4.00
2023-04-20T05:04:29.330Z,4.00
2023-04-20T05:14:39.274Z,12.00
2023-04-20T05:24:47.085Z,16.00
2023-04-20T05:34:54.911Z,12.00
2023-04-20T05:45:02.423Z,16.00
2023-04-20T05:55:09.792Z,24.00
2023-04-20T06:05:17.447Z,20.00
2023-04-20T06:15:25.070Z,20.00
2023-04-20T06:25:32.626Z,16.00
2023-04-20T06:35:39.721Z,72.00
2023-04-20T06:45:46.659Z,168.00
2023-04-20T06:55:55.426Z,104.00
2023-04-20T07:06:03.204Z,92.00
2023-04-20T07:16:10.858Z,52.00
2023-04-20T07:26:17.841Z,76.00
2023-04-20T07:36:24.441Z,60.00
2023-04-20T07:46:31.541Z,48.00
2023-04-20T07:56:38.821Z,228.00
2023-04-20T08:06:45.968Z,112.00
2023-04-20T08:16:53.116Z,84.00
2023-04-20T08:27:00.573Z,136.00
2023-04-20T08:37:07.770Z,52.00
2023-04-20T08:47:15.198Z,56.00
2023-04-20T08:57:22.813Z,396.00
2023-04-20T09:07:30.509Z,156.00
2023-04-20T09:17:38.148Z,144.00
2023-04-20T09:27:44.240Z,96.00
2023-04-20T09:37:50.030Z,124.00
2023-04-20T09:47:56.141Z,172.00
2023-04-20T09:58:02.313Z,40.00
2023-04-20T10:08:08.224Z,32.00
2023-04-20T10:18:14.233Z,40.00
2023-04-20T10:28:20.203Z,104.00
2023-04-20T10:38:26.291Z,64.00
2023-04-20T10:48:31.615Z,64.00
2023-04-20T10:58:37.927Z,52.00
2023-04-20T11:08:44.652Z,36.00
2023-04-20T11:18:51.048Z,36.00
2023-04-20T11:28:57.345Z,24.00
2023-04-20T11:39:03.327Z,28.00
2023-04-20T11:49:09.702Z,60.00
2023-04-20T11:59:16.006Z,32.00
2023-04-20T12:09:22.599Z,32.00
2023-04-20T12:19:28.975Z,40.00
2023-04-20T12:29:35.178Z,52.00
2023-04-20T12:39:41.736Z,52.00
2023-04-20T12:49:47.774Z,60.00
2023-04-20T12:59:54.040Z,32.00
2023-04-20T13:10:00.768Z,64.00
2023-04-20T13:20:07.090Z,80.00
2023-04-20T13:30:13.727Z,36.00
2023-04-20T13:40:19.889Z,64.00
2023-04-20T13:50:26.399Z,68.00
2023-04-20T14:00:34.758Z,68.00
2023-04-20T14:10:42.267Z,52.00
2023-04-20T14:20:48.686Z,52.00
2023-04-20T14:30:55.013Z,24.00
2023-04-20T14:41:01.622Z,16.00
2023-04-20T14:51:08.373Z,12.00
2023-04-20T15:01:15.303Z,24.00
2023-04-20T15:11:21.956Z,28.00
2023-04-20T15:21:28.888Z,28.00
2023-04-20T15:31:35.415Z,4.00
2023-04-20T15:41:42.207Z,4.00
2023-04-20T15:51:49.202Z,12.00
2023-04-20T16:01:56.095Z,12.00
2023-04-20T16:12:03.150Z,24.00
2023-04-20T16:22:09.994Z,16.00
2023-04-20T16:32:16.435Z,24.00
2023-04-20T16:42:24.997Z,16.00
2023-04-20T16:52:32.913Z,8.00
2023-04-20T17:02:40.031Z,12.00
2023-04-20T17:12:47.167Z,12.00
2023-04-20T17:22:53.630Z,12.00
2023-04-20T17:33:00.168Z,4.00
2023-04-20T17:43:07.048Z,4.00
2023-04-20T17:53:13.759Z,4.00
2023-04-20T18:03:20.813Z,4.00
2023-04-20T18:13:27.346Z,0.00
2023-04-20T18:23:35.853Z,0.00
2023-04-20T18:33:45.459Z,0.00
2023-04-20T18:43:51.967Z,0.00
2023-04-20T18:53:58.806Z,0.00
2023-04-20T19:04:05.610Z,0.00
2023-04-20T19:14:12.387Z,0.00
2023-04-20T19:24:19.099Z,0.00
2023-04-20T19:34:25.907Z,0.00
2023-04-20T19:44:32.552Z,0.00
2023-04-20T19:54:39.187Z,0.00
2023-04-20T20:04:45.896Z,0.00
2023-04-20T20:14:52.647Z,0.00
2023-04-20T20:24:59.493Z,0.00
2023-04-20T20:35:05.812Z,0.00
2023-04-20T20:45:12.650Z,0.00
2023-04-20T20:55:19.060Z,0.00
2023-04-20T21:05:25.466Z,0.00
2023-04-20T21:15:31.896Z,0.00
2023-04-20T21:25:38.166Z,0.00
2023-04-20T21:35:44.533Z,0.00
2023-04-20T21:45:51.109Z,0.00
2023-04-20T21:55:57.598Z,0.00
2023-04-20T22:06:04.296Z,0.00
2023-04-20T22:16:10.804Z,0.00
2023-04-20T22:26:17.315Z,0.00
2023-04-20T22:36:23.928Z,0.00
2023-04-20T22:46:30.956Z,0.00
2023-04-20T22:56:37.542Z,0.00
2023-04-20T23:06:44.296Z,0.00
2023-04-20T23:16:50.410Z,0.00
2023-04-20T23:26:56.510Z,0.00
2023-04-20T23:37:02.494Z,0.00
2023-04-20T23:47:09.028Z,0.00
2023-04-20T23:57:15.053Z,0.00
